createdAt,value
2023-08-11T00:01:24.152Z,76.88
2023-08-11T00:03:51.032Z,77.58
2023-08-11T00:06:17.655Z,78.60
2023-08-11T00:08:44.448Z,78.03
2023-08-11T00:11:12.563Z,78.45
2023-08-11T00:13:39.131Z,78.62
2023-08-11T00:16:06.200Z,79.58
2023-08-11T00:18:32.917Z,79.24
2023-08-11T00:21:00.436Z,79.29
2023-08-11T00:23:27.047Z,78.97
2023-08-11T00:25:53.588Z,78.91
2023-08-11T00:28:20.119Z,79.24
2023-08-11T00:30:46.651Z,79.40
2023-08-11T00:33:13.159Z,79.36
2023-08-11T00:35:41.957Z,79.42
2023-08-11T00:38:08.608Z,79.82
2023-08-11T00:40:35.201Z,80.54
2023-08-11T00:43:02.025Z,80.42
2023-08-11T00:45:29.050Z,79.91
2023-08-11T00:47:55.863Z,80.60
2023-08-11T00:50:22.546Z,81.17
2023-08-11T00:52:50.850Z,80.62
2023-08-11T00:55:20.037Z,80.14
2023-08-11T00:57:47.573Z,81.05
2023-08-11T01:00:15.463Z,80.14
2023-08-11T01:02:43.984Z,80.17
2023-08-11T01:05:15.820Z,80.56
2023-08-11T01:07:57.598Z,80.73
2023-08-11T01:10:58.348Z,81.62
2023-08-11T01:13:30.285Z,79.89
2023-08-11T01:16:01.497Z,80.16
2023-08-11T01:18:29.855Z,79.36
2023-08-11T01:21:01.149Z,79.77
2023-08-11T01:23:27.816Z,78.98
2023-08-11T01:25:54.856Z,79.56
2023-08-11T01:28:21.588Z,80.32
2023-08-11T01:30:49.463Z,80.52
2023-08-11T01:33:16.416Z,79.44
2023-08-11T01:35:43.034Z,79.77
2023-08-11T01:38:10.701Z,80.16
2023-08-11T01:40:38.595Z,79.54
2023-08-11T01:43:08.287Z,79.31
2023-08-11T01:45:35.256Z,79.61
2023-08-11T01:48:03.615Z,79.58
2023-08-11T01:50:31.605Z,80.02
2023-08-11T01:52:58.545Z,80.14
2023-08-11T01:55:26.422Z,80.46
2023-08-11T01:57:59.380Z,80.43
2023-08-11T02:00:27.743Z,80.14
2023-08-11T02:02:54.873Z,80.27
2023-08-11T02:05:21.784Z,80.57
2023-08-11T02:07:48.368Z,81.61
2023-08-11T02:10:15.022Z,81.49
2023-08-11T02:12:41.819Z,83.55
2023-08-11T02:15:09.649Z,84.22
2023-08-11T02:17:36.432Z,85.07
2023-08-11T02:20:19.327Z,85.41
2023-08-11T02:22:46.197Z,85.17
2023-08-11T02:25:12.941Z,83.63
2023-08-11T02:27:39.621Z,85.22
2023-08-11T02:30:08.404Z,83.96
2023-08-11T02:32:35.049Z,84.49
2023-08-11T02:35:01.717Z,84.54
2023-08-11T02:37:28.319Z,83.48
2023-08-11T02:39:54.836Z,83.76
2023-08-11T02:42:21.959Z,82.44
2023-08-11T02:44:48.540Z,83.62
2023-08-11T02:47:15.065Z,82.92
2023-08-11T02:49:41.630Z,83.17
2023-08-11T02:52:08.832Z,82.61
2023-08-11T02:54:35.684Z,83.82
2023-08-11T02:57:03.008Z,84.15
2023-08-11T02:59:29.581Z,84.06
2023-08-11T03:01:56.224Z,85.41
2023-08-11T03:04:22.889Z,84.26
2023-08-11T03:06:49.438Z,84.56
2023-08-11T03:09:15.962Z,84.53
2023-08-11T03:11:42.576Z,84.78
2023-08-11T03:14:09.125Z,85.34
2023-08-11T03:16:35.709Z,84.10
2023-08-11T03:19:02.306Z,86.05
2023-08-11T03:21:28.900Z,86.36
2023-08-11T03:23:55.650Z,86.77
2023-08-11T03:26:22.254Z,87.58
2023-08-11T03:28:48.807Z,86.01
2023-08-11T03:31:15.366Z,86.97
2023-08-11T03:33:41.978Z,85.59
2023-08-11T03:36:08.512Z,86.14
2023-08-11T03:38:35.063Z,87.29
2023-08-11T03:41:01.923Z,85.44
2023-08-11T03:43:28.502Z,85.43
2023-08-11T03:45:55.001Z,84.71
2023-08-11T03:48:22.020Z,84.78
2023-08-11T03:50:48.583Z,84.75
2023-08-11T03:53:15.490Z,84.95
2023-08-11T03:55:44.702Z,85.91
2023-08-11T03:58:14.129Z,83.86
2023-08-11T04:00:41.534Z,83.47
2023-08-11T04:03:10.482Z,83.49
2023-08-11T04:05:37.547Z,83.17
2023-08-11T04:08:05.645Z,82.94
2023-08-11T04:10:32.484Z,83.27
2023-08-11T04:12:59.271Z,83.32
2023-08-11T04:15:25.991Z,83.25
2023-08-11T04:17:52.627Z,83.16
2023-08-11T04:20:19.218Z,83.33
2023-08-11T04:22:45.886Z,83.28
2023-08-11T04:25:13.927Z,83.10
2023-08-11T04:27:40.843Z,83.59
2023-08-11T04:30:09.136Z,83.35
2023-08-11T04:32:35.898Z,83.74
2023-08-11T04:35:02.498Z,84.12
2023-08-11T04:37:29.081Z,84.06
2023-08-11T04:39:55.693Z,84.37
2023-08-11T04:42:22.231Z,84.39
2023-08-11T04:44:48.981Z,85.09
2023-08-11T04:47:16.088Z,85.02
2023-08-11T04:49:44.487Z,85.15
2023-08-11T04:52:11.303Z,85.02
2023-08-11T04:54:37.895Z,84.77
2023-08-11T04:57:04.840Z,85.19
2023-08-11T04:59:32.664Z,85.12
2023-08-11T05:02:00.187Z,85.10
2023-08-11T05:04:27.334Z,85.43
2023-08-11T05:06:53.973Z,84.89
2023-08-11T05:09:20.733Z,85.17
2023-08-11T05:11:47.296Z,85.56
2023-08-11T05:14:17.163Z,85.33
2023-08-11T05:16:43.773Z,84.85
2023-08-11T05:19:10.319Z,84.69
2023-08-11T05:21:38.925Z,84.91
2023-08-11T05:24:06.110Z,84.98
2023-08-11T05:26:32.757Z,85.38
2023-08-11T05:28:59.827Z,85.01
2023-08-11T05:31:26.572Z,84.44
2023-08-11T05:33:53.807Z,83.69
2023-08-11T05:36:20.462Z,83.18
2023-08-11T05:38:47.137Z,82.42
2023-08-11T05:41:13.770Z,81.32
2023-08-11T05:43:40.573Z,80.09
2023-08-11T05:46:10.159Z,78.32
2023-08-11T05:48:37.142Z,77.48
2023-08-11T05:51:05.236Z,75.38
2023-08-11T05:53:31.938Z,73.67
2023-08-11T05:55:58.858Z,71.64
2023-08-11T05:58:25.452Z,69.33
2023-08-11T06:00:52.791Z,67.83
2023-08-11T06:03:19.423Z,67.77
2023-08-11T06:05:46.043Z,65.35
2023-08-11T06:08:12.599Z,67.92
2023-08-11T06:10:39.194Z,63.60
2023-08-11T06:13:05.768Z,66.43
2023-08-11T06:15:32.404Z,63.56
2023-08-11T06:17:59.136Z,64.51
2023-08-11T06:20:38.672Z,63.67
2023-08-11T06:23:06.052Z,60.47
2023-08-11T06:25:32.644Z,56.96
2023-08-11T06:27:59.198Z,57.47
2023-08-11T06:30:28.870Z,59.52
2023-08-11T06:32:55.992Z,56.28
2023-08-11T06:35:23.352Z,57.39
2023-08-11T06:37:50.337Z,53.67
2023-08-11T06:40:17.058Z,57.83
2023-08-11T06:42:46.597Z,54.66
2023-08-11T06:45:13.262Z,55.05
2023-08-11T06:47:39.856Z,56.41
2023-08-11T06:50:06.886Z,55.11
2023-08-11T06:52:33.434Z,51.85
2023-08-11T06:55:00.022Z,49.59
2023-08-11T06:57:26.641Z,52.92
2023-08-11T06:59:53.321Z,51.19
2023-08-11T07:02:20.018Z,47.52
2023-08-11T07:04:46.591Z,49.84
2023-08-11T07:07:13.274Z,50.38
2023-08-11T07:09:39.881Z,50.00
2023-08-11T07:12:07.339Z,51.50
2023-08-11T07:14:33.918Z,47.64
2023-08-11T07:17:00.634Z,49.06
2023-08-11T07:19:27.235Z,48.32
2023-08-11T07:21:53.810Z,47.50
2023-08-11T07:24:20.365Z,46.30
2023-08-11T07:26:46.912Z,46.35
2023-08-11T07:29:13.515Z,47.22
2023-08-11T07:31:40.886Z,49.03
2023-08-11T07:34:07.552Z,48.16
2023-08-11T07:36:34.179Z,47.58
2023-08-11T07:39:16.861Z,47.05
2023-08-11T07:41:47.333Z,48.35
2023-08-11T07:44:13.981Z,47.71
2023-08-11T07:46:40.753Z,47.95
2023-08-11T07:49:07.790Z,46.72
2023-08-11T07:51:49.264Z,44.22
2023-08-11T07:54:17.954Z,45.24
2023-08-11T07:56:45.420Z,44.48
2023-08-11T07:59:12.431Z,44.16
2023-08-11T08:01:39.245Z,44.05
2023-08-11T08:04:06.209Z,42.84
2023-08-11T08:06:33.527Z,42.49
2023-08-11T08:09:00.171Z,43.38
2023-08-11T08:11:27.460Z,42.20
2023-08-11T08:13:54.086Z,42.85
2023-08-11T08:16:20.766Z,41.25
2023-08-11T08:18:47.530Z,42.21
2023-08-11T08:21:14.219Z,40.74
2023-08-11T08:23:40.788Z,42.92
2023-08-11T08:26:08.472Z,39.75
2023-08-11T08:28:35.029Z,40.07
2023-08-11T08:31:01.578Z,41.26
2023-08-11T08:33:28.434Z,40.65
2023-08-11T08:35:55.285Z,40.20
2023-08-11T08:38:21.835Z,41.32
2023-08-11T08:40:48.652Z,42.37
2023-08-11T08:43:15.299Z,42.26
2023-08-11T08:45:44.451Z,41.84
2023-08-11T08:48:20.579Z,41.70
2023-08-11T08:50:47.092Z,42.95
2023-08-11T08:53:13.957Z,43.57
2023-08-11T08:55:41.788Z,42.07
2023-08-11T08:58:10.493Z,43.19
2023-08-11T09:00:37.123Z,43.04
2023-08-11T09:03:04.665Z,43.49
2023-08-11T09:05:33.075Z,40.92
2023-08-11T09:07:59.683Z,42.17
2023-08-11T09:10:26.496Z,42.30
2023-08-11T09:12:53.111Z,40.87
2023-08-11T09:15:19.715Z,43.14
2023-08-11T09:17:48.312Z,42.57
2023-08-11T09:20:19.040Z,42.65
2023-08-11T09:22:45.580Z,44.10
2023-08-11T09:25:13.429Z,44.11
2023-08-11T09:27:40.099Z,44.22
2023-08-11T09:30:10.612Z,44.57
2023-08-11T09:32:37.335Z,43.69
2023-08-11T09:35:11.541Z,43.74
2023-08-11T09:37:44.596Z,42.34
2023-08-11T09:40:12.665Z,43.04
2023-08-11T09:42:39.546Z,43.14
2023-08-11T09:45:06.795Z,41.82
2023-08-11T09:47:33.349Z,42.28
2023-08-11T09:50:00.355Z,41.01
2023-08-11T09:52:28.620Z,42.17
2023-08-11T09:54:57.248Z,40.81
2023-08-11T09:57:25.263Z,41.52
2023-08-11T09:59:54.676Z,40.30
2023-08-11T10:02:26.300Z,40.66
2023-08-11T10:05:07.919Z,41.20
2023-08-11T10:07:40.240Z,40.16
2023-08-11T10:10:10.075Z,40.64
2023-08-11T10:12:41.878Z,42.23
2023-08-11T10:15:11.108Z,43.56
2023-08-11T10:17:38.143Z,43.64
2023-08-11T10:20:05.927Z,43.15
2023-08-11T10:22:33.797Z,41.00
2023-08-11T10:25:04.006Z,42.65
2023-08-11T10:27:31.697Z,41.42
2023-08-11T10:29:58.762Z,41.00
2023-08-11T10:32:30.017Z,41.07
2023-08-11T10:34:57.612Z,43.22
2023-08-11T10:37:33.993Z,41.55
2023-08-11T10:40:10.440Z,40.95
2023-08-11T10:42:37.634Z,39.85
2023-08-11T10:45:24.775Z,40.66
2023-08-11T10:47:54.478Z,40.94
2023-08-11T10:50:22.328Z,40.68
2023-08-11T10:53:19.697Z,39.65
2023-08-11T10:56:06.293Z,39.40
2023-08-11T10:58:38.654Z,40.87
2023-08-11T11:01:06.005Z,41.00
2023-08-11T11:03:34.948Z,38.24
2023-08-11T11:06:05.756Z,39.71
2023-08-11T11:08:32.408Z,37.85
2023-08-11T11:10:58.966Z,37.49
2023-08-11T11:13:25.751Z,37.70
2023-08-11T11:15:52.736Z,39.04
2023-08-11T11:18:19.463Z,39.90
2023-08-11T11:20:46.014Z,40.56
2023-08-11T11:23:12.766Z,38.88
2023-08-11T11:25:39.336Z,39.20
2023-08-11T11:28:06.181Z,39.59
2023-08-11T11:30:34.094Z,38.85
2023-08-11T11:33:02.862Z,38.62
2023-08-11T11:35:31.333Z,39.17
2023-08-11T11:37:59.951Z,39.41
2023-08-11T11:40:26.567Z,39.38
2023-08-11T11:42:53.137Z,37.52
2023-08-11T11:45:20.474Z,37.10
2023-08-11T11:47:48.279Z,38.10
2023-08-11T11:50:14.994Z,36.79
2023-08-11T11:52:47.799Z,37.43
2023-08-11T11:55:14.522Z,36.68
2023-08-11T11:57:41.191Z,38.25
2023-08-11T12:00:17.171Z,36.16
2023-08-11T12:02:45.154Z,35.80
2023-08-11T12:05:13.776Z,36.37
2023-08-11T12:07:41.363Z,37.75
2023-08-11T12:10:08.436Z,35.69
2023-08-11T12:12:35.093Z,37.04
2023-08-11T12:15:07.050Z,35.24
2023-08-11T12:17:35.134Z,36.24
2023-08-11T12:20:05.140Z,36.09
2023-08-11T12:22:31.744Z,36.23
2023-08-11T12:24:58.339Z,35.44
2023-08-11T12:27:24.962Z,36.10
2023-08-11T12:29:51.510Z,37.09
2023-08-11T12:32:18.061Z,35.36
2023-08-11T12:34:44.594Z,36.34
2023-08-11T12:37:13.315Z,35.78
2023-08-11T12:39:40.093Z,36.14
2023-08-11T12:42:07.039Z,37.64
2023-08-11T12:44:33.891Z,35.86
2023-08-11T12:47:00.476Z,36.62
2023-08-11T12:49:27.044Z,36.43
2023-08-11T12:51:54.028Z,36.59
2023-08-11T12:54:20.680Z,35.00
2023-08-11T12:56:47.885Z,36.22
2023-08-11T12:59:14.684Z,35.58
2023-08-11T13:01:41.311Z,35.85
2023-08-11T13:04:08.348Z,35.79
2023-08-11T13:06:35.322Z,36.35
2023-08-11T13:09:02.202Z,35.47
2023-08-11T13:11:28.928Z,36.92
2023-08-11T13:13:55.739Z,35.00
2023-08-11T13:16:22.515Z,36.50
2023-08-11T13:18:49.173Z,35.44
2023-08-11T13:21:15.725Z,35.63
2023-08-11T13:23:42.254Z,36.73
2023-08-11T13:26:09.072Z,36.39
2023-08-11T13:28:35.731Z,35.99
2023-08-11T13:31:02.521Z,36.02
2023-08-11T13:33:29.082Z,35.60
2023-08-11T13:35:55.612Z,36.11
2023-08-11T13:38:23.813Z,35.32
2023-08-11T13:40:50.490Z,36.62
2023-08-11T13:43:20.425Z,36.19
2023-08-11T13:45:47.059Z,37.48
2023-08-11T13:48:13.618Z,36.67
2023-08-11T13:50:40.659Z,36.85
2023-08-11T13:53:07.251Z,36.45
2023-08-11T13:55:34.284Z,37.54
2023-08-11T13:58:00.869Z,37.86
2023-08-11T14:00:29.696Z,37.44
2023-08-11T14:02:58.044Z,37.55
2023-08-11T14:05:25.767Z,36.93
2023-08-11T14:07:52.384Z,37.30
2023-08-11T14:10:20.181Z,37.27
2023-08-11T14:12:47.801Z,37.38
2023-08-11T14:15:14.839Z,37.06
2023-08-11T14:17:41.896Z,36.79
2023-08-11T14:20:09.155Z,37.78
2023-08-11T14:22:35.709Z,37.29
2023-08-11T14:25:02.278Z,37.99
2023-08-11T14:27:28.912Z,37.96
2023-08-11T14:29:55.460Z,38.46
2023-08-11T14:32:26.241Z,38.30
2023-08-11T14:34:53.783Z,38.42
2023-08-11T14:37:21.693Z,38.43
2023-08-11T14:39:48.436Z,38.51
2023-08-11T14:42:15.436Z,38.57
2023-08-11T14:44:42.528Z,38.50
2023-08-11T14:47:14.267Z,37.92
2023-08-11T14:49:42.122Z,38.54
2023-08-11T14:52:09.054Z,39.33
2023-08-11T14:54:35.962Z,38.21
2023-08-11T14:57:02.632Z,38.88
2023-08-11T14:59:29.472Z,38.36
2023-08-11T15:01:56.409Z,38.21
2023-08-11T15:04:22.966Z,38.00
2023-08-11T15:06:49.538Z,37.54
2023-08-11T15:09:16.181Z,37.96
2023-08-11T15:11:42.713Z,37.90
2023-08-11T15:14:10.998Z,36.68
2023-08-11T15:16:37.661Z,37.81
2023-08-11T15:19:04.394Z,36.63
2023-08-11T15:21:30.952Z,37.61
2023-08-11T15:23:57.600Z,37.32
2023-08-11T15:26:25.383Z,36.97
2023-08-11T15:28:52.239Z,36.61
2023-08-11T15:31:19.203Z,36.40
2023-08-11T15:33:45.874Z,37.23
2023-08-11T15:36:12.446Z,37.00
2023-08-11T15:38:39.033Z,36.27
2023-08-11T15:41:05.658Z,36.93
2023-08-11T15:43:32.888Z,36.30
2023-08-11T15:45:59.641Z,36.35
2023-08-11T15:48:28.497Z,37.15
2023-08-11T15:50:55.255Z,36.30
2023-08-11T15:53:21.926Z,36.90
2023-08-11T15:55:48.494Z,37.62
2023-08-11T15:58:15.054Z,37.69
2023-08-11T16:00:42.180Z,37.19
2023-08-11T16:03:08.902Z,36.66
2023-08-11T16:05:35.563Z,36.40
2023-08-11T16:08:02.077Z,36.88
2023-08-11T16:10:32.784Z,37.16
2023-08-11T16:12:59.483Z,38.04
2023-08-11T16:15:25.997Z,38.14
2023-08-11T16:17:54.803Z,37.66
2023-08-11T16:20:21.774Z,38.24
2023-08-11T16:22:48.819Z,38.40
2023-08-11T16:25:15.461Z,37.99
2023-08-11T16:27:42.074Z,38.07
2023-08-11T16:30:11.290Z,37.76
2023-08-11T16:32:38.000Z,38.12
2023-08-11T16:35:04.805Z,38.17
2023-08-11T16:37:31.353Z,38.43
2023-08-11T16:39:58.011Z,38.21
2023-08-11T16:42:24.621Z,37.65
2023-08-11T16:44:51.206Z,38.46
2023-08-11T16:47:17.813Z,38.49
2023-08-11T16:49:44.464Z,37.83
2023-08-11T16:52:11.561Z,37.88
2023-08-11T16:54:38.409Z,38.00
2023-08-11T16:57:04.960Z,38.47
2023-08-11T16:59:31.495Z,38.59
2023-08-11T17:01:58.048Z,38.20
2023-08-11T17:04:24.939Z,38.57
2023-08-11T17:06:51.684Z,38.24
2023-08-11T17:09:18.765Z,38.91
2023-08-11T17:11:45.408Z,39.00
2023-08-11T17:14:12.022Z,39.05
2023-08-11T17:16:38.919Z,38.88
2023-08-11T17:19:05.589Z,39.08
2023-08-11T17:21:32.199Z,39.58
2023-08-11T17:23:58.770Z,39.95
2023-08-11T17:26:25.431Z,40.22
2023-08-11T17:28:56.814Z,39.86
2023-08-11T17:31:24.481Z,40.33
2023-08-11T17:33:51.250Z,40.60
2023-08-11T17:36:20.146Z,40.45
2023-08-11T17:38:47.491Z,40.75
2023-08-11T17:41:14.313Z,40.84
2023-08-11T17:43:40.919Z,42.48
2023-08-11T17:46:07.666Z,43.06
2023-08-11T17:48:34.337Z,44.19
2023-08-11T17:51:02.116Z,45.08
2023-08-11T17:53:28.776Z,45.00
2023-08-11T17:55:55.338Z,47.59
2023-08-11T17:58:21.938Z,46.91
2023-08-11T18:00:48.800Z,47.67
2023-08-11T18:03:15.507Z,49.21
2023-08-11T18:05:42.239Z,49.06
2023-08-11T18:08:08.871Z,48.98
2023-08-11T18:10:35.948Z,50.00
2023-08-11T18:13:02.642Z,49.89
2023-08-11T18:15:29.322Z,50.23
2023-08-11T18:17:56.023Z,51.08
2023-08-11T18:20:22.792Z,50.36
2023-08-11T18:22:49.599Z,51.71
2023-08-11T18:25:16.552Z,52.08
2023-08-11T18:27:43.228Z,53.14
2023-08-11T18:30:10.384Z,53.94
2023-08-11T18:32:37.027Z,54.44
2023-08-11T18:35:03.897Z,53.79
2023-08-11T18:37:30.470Z,55.01
2023-08-11T18:39:57.148Z,54.84
2023-08-11T18:42:23.754Z,55.48
2023-08-11T18:44:50.602Z,55.44
2023-08-11T18:47:17.187Z,55.66
2023-08-11T18:49:43.798Z,55.40
2023-08-11T18:52:13.348Z,55.12
2023-08-11T18:54:41.812Z,58.04
2023-08-11T18:57:13.349Z,55.21
2023-08-11T18:59:41.075Z,55.62
2023-08-11T19:02:08.529Z,56.35
2023-08-11T19:04:35.358Z,56.72
2023-08-11T19:07:01.998Z,56.83
2023-08-11T19:09:28.640Z,57.00
2023-08-11T19:11:55.370Z,58.55
2023-08-11T19:14:22.136Z,58.66
2023-08-11T19:16:48.832Z,58.69
2023-08-11T19:19:16.263Z,59.78
2023-08-11T19:21:45.030Z,59.46
2023-08-11T19:24:13.164Z,58.73
2023-08-11T19:26:41.712Z,58.46
2023-08-11T19:29:08.734Z,59.67
2023-08-11T19:31:35.658Z,60.02
2023-08-11T19:34:04.677Z,59.72
2023-08-11T19:36:32.381Z,60.15
2023-08-11T19:39:00.689Z,60.46
2023-08-11T19:41:27.216Z,60.92
2023-08-11T19:43:53.824Z,61.32
2023-08-11T19:46:20.388Z,61.74
2023-08-11T19:48:47.306Z,61.58
2023-08-11T19:51:14.239Z,61.42
2023-08-11T19:53:40.859Z,61.55
2023-08-11T19:56:10.378Z,62.51
2023-08-11T19:58:37.696Z,62.21
2023-08-11T20:01:09.539Z,62.00
2023-08-11T20:03:36.134Z,62.15
2023-08-11T20:06:03.650Z,62.31
2023-08-11T20:08:33.129Z,62.38
2023-08-11T20:11:00.209Z,62.43
2023-08-11T20:13:26.754Z,62.24
2023-08-11T20:15:57.895Z,63.36
2023-08-11T20:18:25.109Z,62.99
2023-08-11T20:20:51.657Z,63.03
2023-08-11T20:23:18.584Z,63.06
2023-08-11T20:25:45.276Z,64.72
2023-08-11T20:28:14.626Z,67.64
2023-08-11T20:30:43.717Z,65.42
2023-08-11T20:33:10.618Z,64.59
2023-08-11T20:35:37.384Z,66.16
2023-08-11T20:38:04.205Z,65.54
2023-08-11T20:40:33.884Z,69.48
2023-08-11T20:43:01.512Z,70.63
2023-08-11T20:45:31.021Z,70.37
2023-08-11T20:48:12.924Z,73.20
2023-08-11T20:50:39.460Z,72.38
2023-08-11T20:53:06.033Z,71.09
2023-08-11T20:55:32.638Z,71.99
2023-08-11T20:57:59.200Z,70.93
2023-08-11T21:00:25.724Z,74.05
2023-08-11T21:02:52.347Z,74.32
2023-08-11T21:05:19.072Z,74.17
2023-08-11T21:07:45.636Z,75.79
2023-08-11T21:10:15.089Z,76.50
2023-08-11T21:12:42.880Z,76.95
2023-08-11T21:15:09.854Z,77.86
2023-08-11T21:17:36.401Z,78.83
2023-08-11T21:20:03.097Z,74.02
2023-08-11T21:22:29.807Z,74.22
2023-08-11T21:24:56.376Z,75.75
2023-08-11T21:27:22.944Z,76.85
2023-08-11T21:29:49.491Z,78.52
2023-08-11T21:32:16.070Z,81.38
2023-08-11T21:34:42.725Z,77.98
2023-08-11T21:37:09.547Z,77.25
2023-08-11T21:39:40.258Z,78.14
2023-08-11T21:42:10.428Z,78.54
2023-08-11T21:44:37.039Z,80.53
2023-08-11T21:47:04.516Z,78.30
2023-08-11T21:49:31.116Z,80.18
2023-08-11T21:51:57.795Z,80.16
2023-08-11T21:54:24.713Z,79.58
2023-08-11T21:56:51.298Z,79.54
2023-08-11T21:59:17.809Z,80.12
2023-08-11T22:01:45.279Z,79.88
2023-08-11T22:04:12.024Z,79.36
2023-08-11T22:06:38.609Z,79.29
2023-08-11T22:09:05.571Z,79.50
2023-08-11T22:11:36.850Z,79.74
2023-08-11T22:14:05.158Z,86.55
2023-08-11T22:16:33.156Z,80.64
2023-08-11T22:19:00.280Z,80.40
2023-08-11T22:21:26.947Z,80.92
2023-08-11T22:23:53.537Z,81.12
2023-08-11T22:26:20.298Z,81.08
2023-08-11T22:28:46.959Z,81.18
2023-08-11T22:31:13.570Z,81.34
2023-08-11T22:33:40.214Z,80.97
2023-08-11T22:36:06.890Z,81.86
2023-08-11T22:38:33.817Z,82.24
2023-08-11T22:41:00.998Z,83.01
2023-08-11T22:43:28.261Z,82.53
2023-08-11T22:45:54.983Z,83.04
2023-08-11T22:48:21.907Z,82.64
2023-08-11T22:50:48.581Z,83.76
2023-08-11T22:53:16.311Z,86.16
2023-08-11T22:55:42.860Z,85.19
2023-08-11T22:58:09.371Z,87.39
2023-08-11T23:00:36.227Z,89.27
2023-08-11T23:03:02.850Z,90.43
2023-08-11T23:05:29.411Z,90.42
2023-08-11T23:07:56.727Z,93.46
2023-08-11T23:10:23.668Z,92.60
2023-08-11T23:12:50.209Z,92.21
2023-08-11T23:15:16.948Z,92.71
2023-08-11T23:17:43.611Z,90.14
2023-08-11T23:20:10.595Z,90.95
2023-08-11T23:22:37.422Z,89.92
2023-08-11T23:25:06.358Z,90.52
2023-08-11T23:27:33.147Z,90.10
2023-08-11T23:30:01.581Z,89.71
2023-08-11T23:32:33.462Z,89.67
2023-08-11T23:35:00.712Z,88.93
2023-08-11T23:37:28.691Z,89.03
2023-08-11T23:39:58.814Z,89.20
2023-08-11T23:42:25.794Z,93.14
2023-08-11T23:44:52.571Z,88.74
2023-08-11T23:47:19.233Z,88.61
2023-08-11T23:49:46.145Z,88.91
2023-08-11T23:52:12.788Z,91.16
2023-08-11T23:54:39.509Z,89.43
2023-08-11T23:57:06.387Z,89.69
2023-08-11T23:59:34.238Z,88.97
